Terminal Aerodrome Forecast
Issued by NWS Twin Cities, MN

Home | Current Version | Previous Version | Text Only | Print | Product List | Glossary Off
Versions: 1 2 3 4 5 6 7 8 9 10 11 12 13 14 15 16 17 18 19 20

000
FTUS43 KMPX 310800 AAA
TAFEAU
TAF AMD
KEAU 310810Z 3108/0106 24003KT 6SM BR FEW002
      TEMPO 3110/3112 3SM BR SCT002
     FM311200 VRB02KT 3SM BR BKN006
     FM311400 29009KT P6SM SCT045
     FM010200 24003KT P6SM SKC=

USA.gov is the U.S. government's official web portal to all federal, state and local government web resources and services.